sensor_id;sensor_type;location;lat;lon;timestamp;P1;durP1;ratioP1;P2;durP2;ratioP2
71655;SDS011;59497;48.798;8.816;2023-10-09T00:00:18;13.52;;;3.17;;
71655;SDS011;59497;48.798;8.816;2023-10-09T00:03:15;17.17;;;3.28;;
71655;SDS011;59497;48.798;8.816;2023-10-09T00:05:42;12.03;;;2.90;;
71655;SDS011;59497;48.798;8.816;2023-10-09T00:08:11;13.05;;;2.88;;
71655;SDS011;59497;48.798;8.816;2023-10-09T00:10:41;16.50;;;3.10;;
71655;SDS011;59497;48.798;8.816;2023-10-09T00:13:19;14.68;;;3.22;;
71655;SDS011;59497;48.798;8.816;2023-10-09T00:15:45;13.00;;;3.10;;
71655;SDS011;59497;48.798;8.816;2023-10-09T00:18:17;11.27;;;3.08;;
71655;SDS011;59497;48.798;8.816;2023-10-09T00:20:47;12.93;;;3.17;;
71655;SDS011;59497;48.798;8.816;2023-10-09T00:23:19;12.55;;;3.05;;
71655;SDS011;59497;48.798;8.816;2023-10-09T00:25:50;13.57;;;3.63;;
71655;SDS011;59497;48.798;8.816;2023-10-09T00:28:33;12.70;;;3.33;;
71655;SDS011;59497;48.798;8.816;2023-10-09T00:30:59;15.80;;;4.40;;
71655;SDS011;59497;48.798;8.816;2023-10-09T00:33:29;7.72;;;2.88;;
71655;SDS011;59497;48.798;8.816;2023-10-09T00:35:54;12.40;;;3.37;;
71655;SDS011;59497;48.798;8.816;2023-10-09T00:38:19;11.90;;;2.90;;
71655;SDS011;59497;48.798;8.816;2023-10-09T00:40:45;12.07;;;2.93;;
71655;SDS011;59497;48.798;8.816;2023-10-09T00:43:21;12.25;;;3.05;;
71655;SDS011;59497;48.798;8.816;2023-10-09T00:45:53;12.13;;;2.92;;
71655;SDS011;59497;48.798;8.816;2023-10-09T00:48:18;9.67;;;3.10;;
71655;SDS011;59497;48.798;8.816;2023-10-09T00:50:56;10.30;;;2.78;;
71655;SDS011;59497;48.798;8.816;2023-10-09T00:53:24;11.30;;;3.25;;
71655;SDS011;59497;48.798;8.816;2023-10-09T00:55:58;11.77;;;3.13;;
71655;SDS011;59497;48.798;8.816;2023-10-09T00:58:28;13.77;;;3.63;;
71655;SDS011;59497;48.798;8.816;2023-10-09T01:00:56;12.10;;;3.55;;
71655;SDS011;59497;48.798;8.816;2023-10-09T01:03:21;14.67;;;4.17;;
71655;SDS011;59497;48.798;8.816;2023-10-09T01:05:57;11.50;;;3.35;;
71655;SDS011;59497;48.798;8.816;2023-10-09T01:08:24;12.20;;;3.72;;
71655;SDS011;59497;48.798;8.816;2023-10-09T01:11:10;9.53;;;3.03;;
71655;SDS011;59497;48.798;8.816;2023-10-09T01:13:43;14.00;;;3.35;;
71655;SDS011;59497;48.798;8.816;2023-10-09T01:16:11;17.30;;;2.60;;
71655;SDS011;59497;48.798;8.816;2023-10-09T01:18:41;13.65;;;3.30;;
71655;SDS011;59497;48.798;8.816;2023-10-09T01:21:06;13.07;;;4.13;;
71655;SDS011;59497;48.798;8.816;2023-10-09T01:23:31;11.97;;;3.20;;
71655;SDS011;59497;48.798;8.816;2023-10-09T01:25:56;12.43;;;3.67;;
71655;SDS011;59497;48.798;8.816;2023-10-09T01:28:22;13.97;;;4.10;;
71655;SDS011;59497;48.798;8.816;2023-10-09T01:30:49;13.48;;;4.25;;
71655;SDS011;59497;48.798;8.816;2023-10-09T01:33:16;17.60;;;3.40;;
71655;SDS011;59497;48.798;8.816;2023-10-09T01:35:47;12.48;;;3.15;;
71655;SDS011;59497;48.798;8.816;2023-10-09T01:38:14;10.63;;;3.50;;
71655;SDS011;59497;48.798;8.816;2023-10-09T01:40:40;11.40;;;3.33;;
71655;SDS011;59497;48.798;8.816;2023-10-09T01:43:05;14.73;;;3.33;;
71655;SDS011;59497;48.798;8.816;2023-10-09T01:45:35;13.38;;;2.97;;
71655;SDS011;59497;48.798;8.816;2023-10-09T01:48:07;12.18;;;3.50;;
71655;SDS011;59497;48.798;8.816;2023-10-09T01:50:33;10.50;;;2.53;;
71655;SDS011;59497;48.798;8.816;2023-10-09T01:53:00;13.63;;;3.55;;
71655;SDS011;59497;48.798;8.816;2023-10-09T01:55:31;12.50;;;3.27;;
71655;SDS011;59497;48.798;8.816;2023-10-09T01:58:01;12.20;;;3.00;;
71655;SDS011;59497;48.798;8.816;2023-10-09T02:00:49;12.93;;;4.03;;
71655;SDS011;59497;48.798;8.816;2023-10-09T02:03:19;10.27;;;3.03;;
71655;SDS011;59497;48.798;8.816;2023-10-09T02:05:48;13.05;;;3.33;;
71655;SDS011;59497;48.798;8.816;2023-10-09T02:08:15;14.30;;;3.73;;
71655;SDS011;59497;48.798;8.816;2023-10-09T02:10:41;12.77;;;3.60;;
71655;SDS011;59497;48.798;8.816;2023-10-09T02:13:12;14.35;;;3.80;;
71655;SDS011;59497;48.798;8.816;2023-10-09T02:15:42;12.80;;;3.40;;
71655;SDS011;59497;48.798;8.816;2023-10-09T02:18:07;8.57;;;2.93;;
71655;SDS011;59497;48.798;8.816;2023-10-09T02:20:43;12.88;;;3.72;;
71655;SDS011;59497;48.798;8.816;2023-10-09T02:23:10;13.77;;;3.03;;
71655;SDS011;59497;48.798;8.816;2023-10-09T02:25:38;10.95;;;2.72;;
71655;SDS011;59497;48.798;8.816;2023-10-09T02:28:09;13.73;;;3.10;;
71655;SDS011;59497;48.798;8.816;2023-10-09T02:30:42;13.45;;;3.90;;
71655;SDS011;59497;48.798;8.816;2023-10-09T02:33:07;12.27;;;3.37;;
71655;SDS011;59497;48.798;8.816;2023-10-09T02:35:34;15.88;;;3.67;;
71655;SDS011;59497;48.798;8.816;2023-10-09T02:38:03;10.38;;;3.25;;
71655;SDS011;59497;48.798;8.816;2023-10-09T02:40:32;11.73;;;3.50;;
71655;SDS011;59497;48.798;8.816;2023-10-09T02:43:05;9.17;;;3.43;;
71655;SDS011;59497;48.798;8.816;2023-10-09T02:45:30;12.73;;;3.97;;
71655;SDS011;59497;48.798;8.816;2023-10-09T02:48:00;10.13;;;2.85;;
71655;SDS011;59497;48.798;8.816;2023-10-09T02:50:34;12.45;;;3.33;;
71655;SDS011;59497;48.798;8.816;2023-10-09T02:52:59;11.50;;;2.90;;
71655;SDS011;59497;48.798;8.816;2023-10-09T02:55:25;12.90;;;3.40;;
71655;SDS011;59497;48.798;8.816;2023-10-09T02:57:53;11.63;;;3.25;;
71655;SDS011;59497;48.798;8.816;2023-10-09T03:00:30;15.93;;;2.92;;
71655;SDS011;59497;48.798;8.816;2023-10-09T03:02:56;14.77;;;3.78;;
71655;SDS011;59497;48.798;8.816;2023-10-09T03:05:23;14.93;;;3.53;;
71655;SDS011;59497;48.798;8.816;2023-10-09T03:07:49;12.27;;;2.88;;
71655;SDS011;59497;48.798;8.816;2023-10-09T03:10:15;11.85;;;2.70;;
71655;SDS011;59497;48.798;8.816;2023-10-09T03:12:40;14.10;;;3.17;;
71655;SDS011;59497;48.798;8.816;2023-10-09T03:15:08;12.32;;;2.90;;
71655;SDS011;59497;48.798;8.816;2023-10-09T03:17:34;13.30;;;3.23;;
71655;SDS011;59497;48.798;8.816;2023-10-09T03:20:02;16.08;;;3.20;;
71655;SDS011;59497;48.798;8.816;2023-10-09T03:22:27;21.20;;;4.23;;
71655;SDS011;59497;48.798;8.816;2023-10-09T03:24:53;10.90;;;3.07;;
71655;SDS011;59497;48.798;8.816;2023-10-09T03:27:18;12.17;;;3.03;;
71655;SDS011;59497;48.798;8.816;2023-10-09T03:29:43;11.87;;;2.57;;
71655;SDS011;59497;48.798;8.816;2023-10-09T03:32:14;11.35;;;3.08;;
71655;SDS011;59497;48.798;8.816;2023-10-09T03:34:39;13.87;;;3.30;;
71655;SDS011;59497;48.798;8.816;2023-10-09T03:37:04;9.10;;;3.10;;
71655;SDS011;59497;48.798;8.816;2023-10-09T03:39:32;14.13;;;3.77;;
71655;SDS011;59497;48.798;8.816;2023-10-09T03:42:01;12.32;;;3.40;;
71655;SDS011;59497;48.798;8.816;2023-10-09T03:44:31;9.13;;;2.90;;
71655;SDS011;59497;48.798;8.816;2023-10-09T03:46:58;13.13;;;3.92;;
71655;SDS011;59497;48.798;8.816;2023-10-09T03:49:23;11.63;;;3.10;;
71655;SDS011;59497;48.798;8.816;2023-10-09T03:51:50;11.20;;;2.92;;
71655;SDS011;59497;48.798;8.816;2023-10-09T03:54:16;14.87;;;3.40;;
71655;SDS011;59497;48.798;8.816;2023-10-09T03:56:45;13.48;;;3.50;;
71655;SDS011;59497;48.798;8.816;2023-10-09T03:59:10;9.70;;;3.15;;
71655;SDS011;59497;48.798;8.816;2023-10-09T04:01:37;13.50;;;3.77;;
71655;SDS011;59497;48.798;8.816;2023-10-09T04:04:03;10.90;;;3.50;;
71655;SDS011;59497;48.798;8.816;2023-10-09T04:06:29;20.73;;;3.80;;
71655;SDS011;59497;48.798;8.816;2023-10-09T04:09:01;9.13;;;3.25;;
71655;SDS011;59497;48.798;8.816;2023-10-09T04:11:39;10.30;;;3.17;;
71655;SDS011;59497;48.798;8.816;2023-10-09T04:14:09;12.77;;;2.85;;
71655;SDS011;59497;48.798;8.816;2023-10-09T04:16:49;13.43;;;3.10;;
71655;SDS011;59497;48.798;8.816;2023-10-09T04:19:17;14.20;;;3.33;;
71655;SDS011;59497;48.798;8.816;2023-10-09T04:21:47;11.98;;;3.13;;
71655;SDS011;59497;48.798;8.816;2023-10-09T04:24:13;9.20;;;2.53;;
71655;SDS011;59497;48.798;8.816;2023-10-09T04:26:41;11.87;;;3.20;;
71655;SDS011;59497;48.798;8.816;2023-10-09T04:29:10;11.75;;;3.10;;
71655;SDS011;59497;48.798;8.816;2023-10-09T04:31:35;14.37;;;3.50;;
71655;SDS011;59497;48.798;8.816;2023-10-09T04:34:02;12.60;;;3.80;;
71655;SDS011;59497;48.798;8.816;2023-10-09T04:36:46;12.52;;;3.20;;
71655;SDS011;59497;48.798;8.816;2023-10-09T04:39:11;12.90;;;4.03;;
71655;SDS011;59497;48.798;8.816;2023-10-09T04:41:37;10.00;;;3.00;;
71655;SDS011;59497;48.798;8.816;2023-10-09T04:44:08;12.88;;;2.78;;
71655;SDS011;59497;48.798;8.816;2023-10-09T04:46:54;17.67;;;2.90;;
71655;SDS011;59497;48.798;8.816;2023-10-09T04:49:35;11.45;;;2.50;;
71655;SDS011;59497;48.798;8.816;2023-10-09T04:52:12;18.73;;;3.83;;
71655;SDS011;59497;48.798;8.816;2023-10-09T04:54:44;12.15;;;2.78;;
71655;SDS011;59497;48.798;8.816;2023-10-09T04:57:28;13.88;;;3.25;;
71655;SDS011;59497;48.798;8.816;2023-10-09T04:59:54;12.03;;;3.40;;
71655;SDS011;59497;48.798;8.816;2023-10-09T05:02:23;13.73;;;3.53;;
71655;SDS011;59497;48.798;8.816;2023-10-09T05:04:48;11.83;;;3.40;;
71655;SDS011;59497;48.798;8.816;2023-10-09T05:07:34;12.40;;;3.63;;
71655;SDS011;59497;48.798;8.816;2023-10-09T05:10:18;12.68;;;4.05;;
71655;SDS011;59497;48.798;8.816;2023-10-09T05:12:49;13.40;;;3.90;;
71655;SDS011;59497;48.798;8.816;2023-10-09T05:15:22;8.95;;;2.97;;
71655;SDS011;59497;48.798;8.816;2023-10-09T05:17:51;9.47;;;2.73;;
71655;SDS011;59497;48.798;8.816;2023-10-09T05:20:21;14.10;;;3.15;;
71655;SDS011;59497;48.798;8.816;2023-10-09T05:22:52;12.00;;;2.83;;
71655;SDS011;59497;48.798;8.816;2023-10-09T05:25:37;8.50;;;2.60;;
71655;SDS011;59497;48.798;8.816;2023-10-09T05:28:18;11.45;;;3.10;;
71655;SDS011;59497;48.798;8.816;2023-10-09T05:30:50;11.43;;;2.80;;
71655;SDS011;59497;48.798;8.816;2023-10-09T05:33:27;15.30;;;3.53;;
71655;SDS011;59497;48.798;8.816;2023-10-09T05:35:58;11.40;;;3.45;;
71655;SDS011;59497;48.798;8.816;2023-10-09T05:38:42;12.10;;;3.20;;
71655;SDS011;59497;48.798;8.816;2023-10-09T05:41:24;12.20;;;3.50;;
71655;SDS011;59497;48.798;8.816;2023-10-09T05:44:08;9.30;;;3.13;;
71655;SDS011;59497;48.798;8.816;2023-10-09T05:46:51;14.38;;;3.40;;
71655;SDS011;59497;48.798;8.816;2023-10-09T05:49:43;14.48;;;4.53;;
71655;SDS011;59497;48.798;8.816;2023-10-09T05:52:14;11.15;;;3.65;;
71655;SDS011;59497;48.798;8.816;2023-10-09T05:55:01;9.48;;;3.17;;
71655;SDS011;59497;48.798;8.816;2023-10-09T05:57:53;11.10;;;3.20;;
71655;SDS011;59497;48.798;8.816;2023-10-09T06:00:21;11.30;;;3.85;;
71655;SDS011;59497;48.798;8.816;2023-10-09T06:03:05;13.55;;;3.42;;
71655;SDS011;59497;48.798;8.816;2023-10-09T06:05:46;11.93;;;2.67;;
71655;SDS011;59497;48.798;8.816;2023-10-09T06:08:26;8.82;;;2.67;;
71655;SDS011;59497;48.798;8.816;2023-10-09T06:11:12;9.63;;;3.07;;
71655;SDS011;59497;48.798;8.816;2023-10-09T06:13:56;11.20;;;3.10;;
71655;SDS011;59497;48.798;8.816;2023-10-09T06:16:34;8.98;;;2.95;;
71655;SDS011;59497;48.798;8.816;2023-10-09T06:19:18;18.13;;;4.25;;
71655;SDS011;59497;48.798;8.816;2023-10-09T06:21:47;12.48;;;3.17;;
71655;SDS011;59497;48.798;8.816;2023-10-09T06:24:18;10.33;;;3.40;;
71655;SDS011;59497;48.798;8.816;2023-10-09T06:26:46;14.00;;;4.65;;
71655;SDS011;59497;48.798;8.816;2023-10-09T06:29:26;13.55;;;3.38;;
71655;SDS011;59497;48.798;8.816;2023-10-09T06:32:11;14.87;;;5.00;;
71655;SDS011;59497;48.798;8.816;2023-10-09T06:35:00;17.77;;;3.97;;
71655;SDS011;59497;48.798;8.816;2023-10-09T06:37:44;10.70;;;3.45;;
71655;SDS011;59497;48.798;8.816;2023-10-09T06:40:29;12.45;;;3.70;;
71655;SDS011;59497;48.798;8.816;2023-10-09T06:43:12;13.48;;;3.78;;
71655;SDS011;59497;48.798;8.816;2023-10-09T06:45:56;13.57;;;3.63;;
71655;SDS011;59497;48.798;8.816;2023-10-09T06:48:51;15.13;;;4.53;;
71655;SDS011;59497;48.798;8.816;2023-10-09T06:51:22;13.50;;;3.70;;
71655;SDS011;59497;48.798;8.816;2023-10-09T06:53:53;12.77;;;3.97;;
71655;SDS011;59497;48.798;8.816;2023-10-09T06:56:19;13.23;;;3.67;;
71655;SDS011;59497;48.798;8.816;2023-10-09T06:58:56;14.20;;;3.47;;
71655;SDS011;59497;48.798;8.816;2023-10-09T07:01:29;11.07;;;3.58;;
71655;SDS011;59497;48.798;8.816;2023-10-09T07:04:04;11.43;;;3.03;;
71655;SDS011;59497;48.798;8.816;2023-10-09T07:06:47;16.48;;;3.05;;
71655;SDS011;59497;48.798;8.816;2023-10-09T07:09:12;14.48;;;3.30;;
71655;SDS011;59497;48.798;8.816;2023-10-09T07:11:38;12.17;;;3.30;;
71655;SDS011;59497;48.798;8.816;2023-10-09T07:16:32;9.63;;;3.50;;
71655;SDS011;59497;48.798;8.816;2023-10-09T07:19:03;11.98;;;3.45;;
71655;SDS011;59497;48.798;8.816;2023-10-09T07:21:44;14.20;;;3.20;;
71655;SDS011;59497;48.798;8.816;2023-10-09T07:24:16;12.93;;;2.50;;
71655;SDS011;59497;48.798;8.816;2023-10-09T07:26:42;8.52;;;3.25;;
71655;SDS011;59497;48.798;8.816;2023-10-09T07:29:17;12.13;;;3.60;;
71655;SDS011;59497;48.798;8.816;2023-10-09T07:31:46;13.93;;;3.03;;
71655;SDS011;59497;48.798;8.816;2023-10-09T07:34:12;17.17;;;3.35;;
71655;SDS011;59497;48.798;8.816;2023-10-09T07:36:56;11.27;;;3.63;;
71655;SDS011;59497;48.798;8.816;2023-10-09T07:39:28;14.48;;;2.97;;
71655;SDS011;59497;48.798;8.816;2023-10-09T07:42:00;10.93;;;3.28;;
71655;SDS011;59497;48.798;8.816;2023-10-09T07:44:40;12.00;;;3.33;;
71655;SDS011;59497;48.798;8.816;2023-10-09T07:47:07;13.48;;;2.97;;
71655;SDS011;59497;48.798;8.816;2023-10-09T07:49:42;14.37;;;3.47;;
71655;SDS011;59497;48.798;8.816;2023-10-09T07:52:14;14.35;;;3.28;;
71655;SDS011;59497;48.798;8.816;2023-10-09T07:54:39;12.63;;;2.78;;
71655;SDS011;59497;48.798;8.816;2023-10-09T07:57:12;18.20;;;3.53;;
71655;SDS011;59497;48.798;8.816;2023-10-09T07:59:41;10.18;;;3.47;;
71655;SDS011;59497;48.798;8.816;2023-10-09T08:02:19;8.68;;;2.90;;
71655;SDS011;59497;48.798;8.816;2023-10-09T08:04:49;13.07;;;3.45;;
71655;SDS011;59497;48.798;8.816;2023-10-09T08:07:15;10.47;;;3.63;;
71655;SDS011;59497;48.798;8.816;2023-10-09T08:09:59;18.55;;;3.78;;
71655;SDS011;59497;48.798;8.816;2023-10-09T08:12:43;10.73;;;2.90;;
71655;SDS011;59497;48.798;8.816;2023-10-09T08:15:14;12.87;;;3.43;;
71655;SDS011;59497;48.798;8.816;2023-10-09T08:17:46;13.63;;;4.63;;
71655;SDS011;59497;48.798;8.816;2023-10-09T08:20:44;16.50;;;3.15;;
71655;SDS011;59497;48.798;8.816;2023-10-09T08:23:24;15.13;;;4.93;;
71655;SDS011;59497;48.798;8.816;2023-10-09T08:26:09;16.25;;;3.80;;
71655;SDS011;59497;48.798;8.816;2023-10-09T08:28:41;14.70;;;3.80;;
71655;SDS011;59497;48.798;8.816;2023-10-09T08:33:44;19.00;;;3.95;;
71655;SDS011;59497;48.798;8.816;2023-10-09T08:36:10;11.17;;;3.57;;
71655;SDS011;59497;48.798;8.816;2023-10-09T08:38:39;13.02;;;3.03;;
71655;SDS011;59497;48.798;8.816;2023-10-09T08:41:07;12.60;;;3.60;;
71655;SDS011;59497;48.798;8.816;2023-10-09T08:43:55;14.80;;;2.60;;
71655;SDS011;59497;48.798;8.816;2023-10-09T08:46:22;17.23;;;3.97;;
71655;SDS011;59497;48.798;8.816;2023-10-09T08:48:48;13.05;;;4.03;;
71655;SDS011;59497;48.798;8.816;2023-10-09T08:51:13;12.52;;;3.30;;
71655;SDS011;59497;48.798;8.816;2023-10-09T08:53:39;15.40;;;3.60;;
71655;SDS011;59497;48.798;8.816;2023-10-09T08:56:08;11.45;;;3.55;;
71655;SDS011;59497;48.798;8.816;2023-10-09T08:58:33;14.93;;;3.85;;
71655;SDS011;59497;48.798;8.816;2023-10-09T09:01:02;19.40;;;2.77;;
71655;SDS011;59497;48.798;8.816;2023-10-09T09:03:34;14.07;;;2.60;;
71655;SDS011;59497;48.798;8.816;2023-10-09T09:06:02;10.32;;;2.75;;
71655;SDS011;59497;48.798;8.816;2023-10-09T09:08:31;18.07;;;4.50;;
71655;SDS011;59497;48.798;8.816;2023-10-09T09:11:00;12.95;;;3.25;;
71655;SDS011;59497;48.798;8.816;2023-10-09T09:13:42;10.85;;;3.17;;
71655;SDS011;59497;48.798;8.816;2023-10-09T09:16:14;15.73;;;2.95;;
71655;SDS011;59497;48.798;8.816;2023-10-09T09:18:48;12.38;;;2.53;;
71655;SDS011;59497;48.798;8.816;2023-10-09T09:21:17;12.00;;;2.77;;
71655;SDS011;59497;48.798;8.816;2023-10-09T09:23:53;21.05;;;4.07;;
71655;SDS011;59497;48.798;8.816;2023-10-09T09:26:21;17.45;;;3.53;;
71655;SDS011;59497;48.798;8.816;2023-10-09T09:28:59;24.80;;;3.95;;
71655;SDS011;59497;48.798;8.816;2023-10-09T09:31:25;32.97;;;4.53;;
71655;SDS011;59497;48.798;8.816;2023-10-09T09:33:56;30.20;;;3.97;;
71655;SDS011;59497;48.798;8.816;2023-10-09T09:36:23;40.58;;;6.05;;
71655;SDS011;59497;48.798;8.816;2023-10-09T09:38:51;38.58;;;4.32;;
71655;SDS011;59497;48.798;8.816;2023-10-09T09:41:17;32.40;;;3.97;;
71655;SDS011;59497;48.798;8.816;2023-10-09T09:43:55;34.97;;;4.38;;
71655;SDS011;59497;48.798;8.816;2023-10-09T09:46:31;41.25;;;5.15;;
71655;SDS011;59497;48.798;8.816;2023-10-09T09:49:06;26.00;;;4.32;;
71655;SDS011;59497;48.798;8.816;2023-10-09T09:51:41;16.60;;;3.33;;
71655;SDS011;59497;48.798;8.816;2023-10-09T09:54:07;12.77;;;2.73;;
71655;SDS011;59497;48.798;8.816;2023-10-09T09:56:34;16.55;;;3.50;;
71655;SDS011;59497;48.798;8.816;2023-10-09T09:59:02;18.02;;;4.20;;
71655;SDS011;59497;48.798;8.816;2023-10-09T10:01:28;21.38;;;3.47;;
71655;SDS011;59497;48.798;8.816;2023-10-09T10:04:11;20.88;;;3.47;;
71655;SDS011;59497;48.798;8.816;2023-10-09T10:06:38;16.80;;;3.80;;
71655;SDS011;59497;48.798;8.816;2023-10-09T10:09:06;17.25;;;3.50;;
71655;SDS011;59497;48.798;8.816;2023-10-09T10:11:47;39.70;;;4.82;;
71655;SDS011;59497;48.798;8.816;2023-10-09T10:14:19;30.10;;;5.70;;
71655;SDS011;59497;48.798;8.816;2023-10-09T10:19:25;19.95;;;4.57;;
71655;SDS011;59497;48.798;8.816;2023-10-09T10:22:24;18.63;;;3.47;;
71655;SDS011;59497;48.798;8.816;2023-10-09T10:25:02;15.70;;;4.00;;
71655;SDS011;59497;48.798;8.816;2023-10-09T10:27:34;15.98;;;3.97;;
71655;SDS011;59497;48.798;8.816;2023-10-09T10:32:56;13.77;;;2.60;;
71655;SDS011;59497;48.798;8.816;2023-10-09T10:35:22;24.38;;;4.35;;
71655;SDS011;59497;48.798;8.816;2023-10-09T10:38:25;13.35;;;3.45;;
71655;SDS011;59497;48.798;8.816;2023-10-09T10:41:06;27.80;;;5.03;;
71655;SDS011;59497;48.798;8.816;2023-10-09T10:43:36;20.27;;;3.13;;
71655;SDS011;59497;48.798;8.816;2023-10-09T10:46:16;12.90;;;3.40;;
71655;SDS011;59497;48.798;8.816;2023-10-09T10:48:54;19.58;;;3.88;;
71655;SDS011;59497;48.798;8.816;2023-10-09T10:51:26;9.75;;;3.03;;
71655;SDS011;59497;48.798;8.816;2023-10-09T10:54:01;11.50;;;2.63;;
71655;SDS011;59497;48.798;8.816;2023-10-09T10:56:46;10.07;;;2.93;;
71655;SDS011;59497;48.798;8.816;2023-10-09T10:59:16;13.73;;;3.28;;
71655;SDS011;59497;48.798;8.816;2023-10-09T11:01:51;26.10;;;3.50;;
71655;SDS011;59497;48.798;8.816;2023-10-09T11:04:26;21.33;;;4.15;;
71655;SDS011;59497;48.798;8.816;2023-10-09T11:06:54;23.80;;;3.72;;
71655;SDS011;59497;48.798;8.816;2023-10-09T11:12:23;18.55;;;4.13;;
71655;SDS011;59497;48.798;8.816;2023-10-09T11:14:49;17.65;;;2.85;;
71655;SDS011;59497;48.798;8.816;2023-10-09T11:17:34;11.98;;;3.20;;
71655;SDS011;59497;48.798;8.816;2023-10-09T11:20:01;9.93;;;3.67;;
71655;SDS011;59497;48.798;8.816;2023-10-09T11:22:46;9.25;;;3.55;;
71655;SDS011;59497;48.798;8.816;2023-10-09T11:25:32;6.88;;;3.15;;
71655;SDS011;59497;48.798;8.816;2023-10-09T11:27:57;7.10;;;3.28;;
71655;SDS011;59497;48.798;8.816;2023-10-09T11:30:35;9.60;;;3.40;;
71655;SDS011;59497;48.798;8.816;2023-10-09T11:33:05;9.50;;;3.35;;
71655;SDS011;59497;48.798;8.816;2023-10-09T11:35:32;8.93;;;3.25;;
71655;SDS011;59497;48.798;8.816;2023-10-09T11:37:59;9.13;;;3.45;;
71655;SDS011;59497;48.798;8.816;2023-10-09T11:40:28;9.37;;;3.47;;
71655;SDS011;59497;48.798;8.816;2023-10-09T11:43:01;11.10;;;3.78;;
71655;SDS011;59497;48.798;8.816;2023-10-09T11:45:28;9.23;;;3.37;;
71655;SDS011;59497;48.798;8.816;2023-10-09T11:47:55;7.25;;;2.67;;
71655;SDS011;59497;48.798;8.816;2023-10-09T11:50:41;10.23;;;3.30;;
71655;SDS011;59497;48.798;8.816;2023-10-09T11:53:15;10.88;;;3.28;;
71655;SDS011;59497;48.798;8.816;2023-10-09T11:55:47;6.50;;;3.55;;
71655;SDS011;59497;48.798;8.816;2023-10-09T11:58:18;6.57;;;2.80;;
71655;SDS011;59497;48.798;8.816;2023-10-09T12:00:56;5.65;;;3.58;;
71655;SDS011;59497;48.798;8.816;2023-10-09T12:03:24;7.20;;;2.97;;
71655;SDS011;59497;48.798;8.816;2023-10-09T12:05:53;8.25;;;3.53;;
71655;SDS011;59497;48.798;8.816;2023-10-09T12:08:18;8.57;;;2.83;;
71655;SDS011;59497;48.798;8.816;2023-10-09T12:10:47;8.05;;;3.97;;
71655;SDS011;59497;48.798;8.816;2023-10-09T12:13:13;8.82;;;2.67;;
71655;SDS011;59497;48.798;8.816;2023-10-09T12:15:40;7.20;;;2.83;;
71655;SDS011;59497;48.798;8.816;2023-10-09T12:18:06;9.63;;;3.60;;
71655;SDS011;59497;48.798;8.816;2023-10-09T12:20:39;7.07;;;2.83;;
71655;SDS011;59497;48.798;8.816;2023-10-09T12:23:04;11.47;;;3.50;;
71655;SDS011;59497;48.798;8.816;2023-10-09T12:25:30;8.67;;;3.10;;
71655;SDS011;59497;48.798;8.816;2023-10-09T12:27:57;10.32;;;3.72;;
71655;SDS011;59497;48.798;8.816;2023-10-09T12:30:22;12.25;;;3.58;;
71655;SDS011;59497;48.798;8.816;2023-10-09T12:32:52;10.80;;;3.33;;
71655;SDS011;59497;48.798;8.816;2023-10-09T12:35:17;7.97;;;3.05;;
71655;SDS011;59497;48.798;8.816;2023-10-09T12:37:43;7.93;;;4.20;;
71655;SDS011;59497;48.798;8.816;2023-10-09T12:40:08;8.77;;;3.43;;
71655;SDS011;59497;48.798;8.816;2023-10-09T12:42:35;8.57;;;3.40;;
71655;SDS011;59497;48.798;8.816;2023-10-09T12:45:01;5.60;;;2.83;;
71655;SDS011;59497;48.798;8.816;2023-10-09T12:47:33;8.00;;;3.40;;
71655;SDS011;59497;48.798;8.816;2023-10-09T12:49:58;6.80;;;3.77;;
71655;SDS011;59497;48.798;8.816;2023-10-09T12:52:23;18.83;;;4.30;;
71655;SDS011;59497;48.798;8.816;2023-10-09T12:54:54;10.90;;;3.30;;
71655;SDS011;59497;48.798;8.816;2023-10-09T12:57:20;11.30;;;3.87;;
71655;SDS011;59497;48.798;8.816;2023-10-09T12:59:45;8.00;;;3.83;;
71655;SDS011;59497;48.798;8.816;2023-10-09T13:02:14;8.32;;;2.90;;
71655;SDS011;59497;48.798;8.816;2023-10-09T13:04:53;8.30;;;3.50;;
71655;SDS011;59497;48.798;8.816;2023-10-09T13:07:18;11.30;;;3.20;;
71655;SDS011;59497;48.798;8.816;2023-10-09T13:09:47;7.70;;;2.67;;
71655;SDS011;59497;48.798;8.816;2023-10-09T13:12:32;8.07;;;3.83;;
71655;SDS011;59497;48.798;8.816;2023-10-09T13:14:57;7.80;;;3.37;;
71655;SDS011;59497;48.798;8.816;2023-10-09T13:17:22;7.13;;;3.07;;
71655;SDS011;59497;48.798;8.816;2023-10-09T13:19:51;8.63;;;3.65;;
71655;SDS011;59497;48.798;8.816;2023-10-09T13:22:17;7.83;;;3.40;;
71655;SDS011;59497;48.798;8.816;2023-10-09T13:24:42;10.73;;;4.78;;
71655;SDS011;59497;48.798;8.816;2023-10-09T13:27:08;9.30;;;3.87;;
71655;SDS011;59497;48.798;8.816;2023-10-09T13:29:35;7.70;;;3.72;;
71655;SDS011;59497;48.798;8.816;2023-10-09T13:32:00;10.50;;;3.97;;
71655;SDS011;59497;48.798;8.816;2023-10-09T13:34:27;9.30;;;4.18;;
71655;SDS011;59497;48.798;8.816;2023-10-09T13:36:53;8.93;;;4.47;;
71655;SDS011;59497;48.798;8.816;2023-10-09T13:39:18;11.10;;;5.03;;
71655;SDS011;59497;48.798;8.816;2023-10-09T13:41:51;12.03;;;4.50;;
71655;SDS011;59497;48.798;8.816;2023-10-09T13:44:22;9.35;;;3.67;;
71655;SDS011;59497;48.798;8.816;2023-10-09T13:46:48;12.17;;;4.93;;
71655;SDS011;59497;48.798;8.816;2023-10-09T13:49:15;9.48;;;5.10;;
71655;SDS011;59497;48.798;8.816;2023-10-09T13:51:41;9.40;;;3.80;;
71655;SDS011;59497;48.798;8.816;2023-10-09T13:54:12;12.55;;;4.32;;
71655;SDS011;59497;48.798;8.816;2023-10-09T13:56:53;8.63;;;4.13;;
71655;SDS011;59497;48.798;8.816;2023-10-09T13:59:19;10.47;;;4.40;;
71655;SDS011;59497;48.798;8.816;2023-10-09T14:01:46;11.07;;;4.18;;
71655;SDS011;59497;48.798;8.816;2023-10-09T14:04:12;9.23;;;4.10;;
71655;SDS011;59497;48.798;8.816;2023-10-09T14:06:43;11.40;;;3.93;;
71655;SDS011;59497;48.798;8.816;2023-10-09T14:09:09;9.70;;;3.85;;
71655;SDS011;59497;48.798;8.816;2023-10-09T14:11:35;9.17;;;4.03;;
71655;SDS011;59497;48.798;8.816;2023-10-09T14:14:04;12.70;;;4.50;;
71655;SDS011;59497;48.798;8.816;2023-10-09T14:16:34;10.43;;;4.65;;
71655;SDS011;59497;48.798;8.816;2023-10-09T14:19:00;8.18;;;4.40;;
71655;SDS011;59497;48.798;8.816;2023-10-09T14:21:26;10.90;;;4.17;;
71655;SDS011;59497;48.798;8.816;2023-10-09T14:23:55;10.83;;;4.43;;
71655;SDS011;59497;48.798;8.816;2023-10-09T14:26:23;13.10;;;4.32;;
71655;SDS011;59497;48.798;8.816;2023-10-09T14:28:48;10.18;;;5.20;;
71655;SDS011;59497;48.798;8.816;2023-10-09T14:31:14;9.73;;;4.07;;
71655;SDS011;59497;48.798;8.816;2023-10-09T14:33:45;10.75;;;5.22;;
71655;SDS011;59497;48.798;8.816;2023-10-09T14:36:16;13.13;;;5.23;;
71655;SDS011;59497;48.798;8.816;2023-10-09T14:38:41;10.13;;;4.27;;
71655;SDS011;59497;48.798;8.816;2023-10-09T14:41:07;12.13;;;4.35;;
71655;SDS011;59497;48.798;8.816;2023-10-09T14:43:36;11.40;;;4.38;;
71655;SDS011;59497;48.798;8.816;2023-10-09T14:46:01;11.97;;;4.30;;
71655;SDS011;59497;48.798;8.816;2023-10-09T14:48:29;8.15;;;4.00;;
71655;SDS011;59497;48.798;8.816;2023-10-09T14:51:01;9.67;;;4.27;;
71655;SDS011;59497;48.798;8.816;2023-10-09T14:53:29;10.30;;;4.55;;
71655;SDS011;59497;48.798;8.816;2023-10-09T14:55:58;8.65;;;4.60;;
71655;SDS011;59497;48.798;8.816;2023-10-09T14:58:26;10.37;;;4.30;;
71655;SDS011;59497;48.798;8.816;2023-10-09T15:00:54;13.52;;;4.80;;
71655;SDS011;59497;48.798;8.816;2023-10-09T15:03:19;11.00;;;4.83;;
71655;SDS011;59497;48.798;8.816;2023-10-09T15:05:44;10.70;;;4.70;;
71655;SDS011;59497;48.798;8.816;2023-10-09T15:08:10;11.50;;;4.10;;
71655;SDS011;59497;48.798;8.816;2023-10-09T15:10:43;12.03;;;4.77;;
71655;SDS011;59497;48.798;8.816;2023-10-09T15:13:09;11.02;;;4.32;;
71655;SDS011;59497;48.798;8.816;2023-10-09T15:15:34;8.43;;;4.20;;